Time;durP1;ratioP1;P1;durP2;ratioP2;P2;SDS_P1;SDS_P2;PMS_P1;PMS_P2;Temp;Humidity;BMP_temperature;BMP_pressure;BME280_temperature;BME280_humidity;BME280_pressure;Samples;Min_cycle;Max_cycle;Signal;HPM_P1;HPM_P2
2024/03/21 00:00:15;;;;;;;0.20;0.20;;;;;;;2.97;78.27;97407.78;5005518;28;20054;-70
2024/03/21 00:02:46;;;;;;;0.20;0.20;;;;;;;3.00;78.62;97400.91;5028357;28;20186;-70
2024/03/21 00:05:14;;;;;;;0.20;0.20;;;;;;;2.83;76.93;97382.44;5025445;28;20052;-70
2024/03/21 00:07:45;;;;;;;0.20;0.20;;;;;;;2.60;75.41;97369.09;5025191;28;20071;-69
2024/03/21 00:10:13;;;;;;;0.20;0.20;;;;;;;3.01;75.52;97392.38;5024986;28;20052;-70
2024/03/21 00:12:39;;;;;;;0.30;0.30;;;;;;;3.05;75.68;97392.56;5041553;28;20057;-70
2024/03/21 00:15:05;;;;;;;0.20;0.20;;;;;;;3.04;75.97;97380.78;5024387;28;20129;-70
2024/03/21 00:17:32;;;;;;;0.20;0.20;;;;;;;2.98;75.44;97392.19;5040959;28;20138;-69
2024/03/21 00:19:58;;;;;;;0.30;0.30;;;;;;;2.92;74.79;97382.50;5060242;28;20052;-70
2024/03/21 00:22:25;;;;;;;0.30;0.30;;;;;;;3.04;74.65;97385.44;5060434;28;20059;-70
2024/03/21 00:24:50;;;;;;;0.30;0.30;;;;;;;2.52;73.92;97304.22;5061274;28;20198;-70
2024/03/21 00:27:16;;;;;;;0.30;0.30;;;;;;;2.53;75.05;97314.06;5043977;28;20530;-70
2024/03/21 00:29:42;;;;;;;0.20;0.20;;;;;;;2.57;72.94;97304.09;5060495;28;20060;-70
2024/03/21 00:32:08;;;;;;;0.30;0.30;;;;;;;2.99;72.76;97350.00;5043928;28;20052;-69
2024/03/21 00:34:34;;;;;;;0.20;0.20;;;;;;;3.18;73.70;97375.22;5044039;28;20135;-69
2024/03/21 00:37:00;;;;;;;0.20;0.20;;;;;;;1.91;73.80;97186.66;5060738;28;20063;-70
2024/03/21 00:39:25;;;;;;;0.20;0.20;;;;;;;2.95;73.83;97349.03;5044428;28;20060;-69
2024/03/21 00:41:51;;;;;;;0.30;0.30;;;;;;;2.97;73.42;97374.16;5061000;28;20056;-70
2024/03/21 00:44:17;;;;;;;0.28;0.28;;;;;;;2.37;74.75;97293.69;5060213;28;20056;-69
2024/03/21 00:46:43;;;;;;;0.20;0.20;;;;;;;2.65;76.39;97360.75;5060849;28;20053;-69
2024/03/21 00:49:09;;;;;;;0.20;0.20;;;;;;;2.74;75.81;97356.16;5060556;28;20095;-69
2024/03/21 00:51:34;;;;;;;0.20;0.20;;;;;;;2.65;76.46;97363.50;5060810;28;20060;-70
2024/03/21 00:54:01;;;;;;;0.30;0.30;;;;;;;2.48;76.31;97371.59;5061113;28;20126;-70
2024/03/21 00:56:26;;;;;;;0.20;0.20;;;;;;;2.47;76.83;97361.75;5060742;28;20068;-70
2024/03/21 00:58:58;;;;;;;0.30;0.30;;;;;;;2.34;77.12;97318.91;5060993;28;20412;-70
2024/03/21 01:01:25;;;;;;;0.20;0.20;;;;;;;1.73;76.58;97217.66;5060758;28;20142;-70
2024/03/21 01:03:51;;;;;;;0.20;0.20;;;;;;;2.63;76.05;97347.41;5044382;28;20423;-69
2024/03/21 01:06:16;;;;;;;0.20;0.20;;;;;;;2.72;73.86;97351.00;5062516;28;20500;-70
2024/03/21 01:08:43;;;;;;;0.20;0.20;;;;;;;2.73;74.37;97343.59;5064682;28;20550;-70
2024/03/21 01:11:09;;;;;;;0.20;0.20;;;;;;;2.69;75.71;97348.06;5064452;28;20078;-70
2024/03/21 01:13:35;;;;;;;0.20;0.20;;;;;;;2.66;74.87;97354.97;5047659;28;20059;-70
2024/03/21 01:16:02;;;;;;;0.30;0.30;;;;;;;2.49;74.64;97352.13;5064396;28;20550;-70
2024/03/21 01:18:35;;;;;;;0.30;0.30;;;;;;;1.82;76.20;97238.47;5047462;28;20450;-69
2024/03/21 01:21:02;;;;;;;0.30;0.30;;;;;;;1.91;77.43;97274.03;5047576;28;20063;-69
2024/03/21 01:23:29;;;;;;;0.20;0.20;;;;;;;2.14;77.00;97327.56;5064041;28;20053;-70
2024/03/21 01:25:55;;;;;;;0.20;0.20;;;;;;;2.30;76.79;97337.03;5063905;28;20110;-69
2024/03/21 01:28:21;;;;;;;0.20;0.20;;;;;;;2.36;77.05;97330.31;5047322;28;20044;-68
2024/03/21 01:30:46;;;;;;;0.20;0.20;;;;;;;1.87;76.58;97267.56;5063603;28;20137;-70
2024/03/21 01:33:12;;;;;;;0.30;0.30;;;;;;;1.93;77.83;97288.22;5047287;28;20098;-69
2024/03/21 01:35:39;;;;;;;0.20;0.20;;;;;;;2.18;77.41;97329.38;5063957;28;20052;-69
2024/03/21 01:38:05;;;;;;;0.20;0.20;;;;;;;2.15;76.17;97326.47;5064739;28;20063;-70
2024/03/21 01:40:32;;;;;;;0.20;0.20;;;;;;;2.02;76.19;97305.47;5064610;28;20060;-69
2024/03/21 01:42:57;;;;;;;0.30;0.30;;;;;;;1.62;76.88;97254.50;5064979;28;20105;-69
2024/03/21 01:45:23;;;;;;;0.30;0.30;;;;;;;2.11;76.53;97339.13;5047366;28;20162;-69
2024/03/21 01:47:49;;;;;;;0.30;0.30;;;;;;;1.53;76.82;97277.06;5063583;28;20056;-70
2024/03/21 01:50:15;;;;;;;0.20;0.20;;;;;;;2.04;77.98;97338.75;5046929;28;20136;-70
2024/03/21 01:52:43;;;;;;;0.30;0.30;;;;;;;2.09;77.77;97330.41;5063332;28;20060;-70
2024/03/21 01:55:14;;;;;;;0.20;0.20;;;;;;;2.17;78.67;97324.22;5065914;28;20552;-70
2024/03/21 01:57:41;;;;;;;0.20;0.20;;;;;;;2.20;78.40;97321.69;5047015;28;20454;-69
2024/03/21 02:00:09;;;;;;;0.20;0.20;;;;;;;2.25;79.17;97315.28;5046714;28;20056;-70
2024/03/21 02:02:35;;;;;;;0.20;0.20;;;;;;;2.35;78.63;97318.59;5047117;28;20056;-69
2024/03/21 02:05:02;;;;;;;0.20;0.20;;;;;;;2.36;78.55;97313.91;5046489;28;20458;-69
2024/03/21 02:07:28;;;;;;;0.20;0.20;;;;;;;2.27;78.80;97304.84;5063338;28;20107;-70
2024/03/21 02:09:54;;;;;;;0.20;0.20;;;;;;;2.22;78.89;97302.25;5063323;28;20860;-70
2024/03/21 02:12:43;;;;;;;0.20;0.20;;;;;;;2.20;78.82;97305.28;5063226;28;20060;-69
2024/03/21 02:15:10;;;;;;;0.20;0.20;;;;;;;2.19;77.96;97309.16;5062963;28;20048;-69
2024/03/21 02:17:36;;;;;;;0.20;0.20;;;;;;;2.18;78.27;97301.25;5063159;28;20063;-69
2024/03/21 02:20:03;;;;;;;0.20;0.20;;;;;;;2.10;78.44;97274.69;5055856;28;20052;-70
2024/03/21 02:22:35;;;;;;;0.28;0.28;;;;;;;2.13;79.09;97293.19;5046748;28;20070;-69
2024/03/21 02:25:11;;;;;;;0.30;0.30;;;;;;;2.17;79.00;97300.44;5046428;28;20099;-69
2024/03/21 02:27:41;;;;;;;0.22;0.22;;;;;;;2.19;79.28;97302.88;5056365;28;20075;-69
2024/03/21 02:30:09;;;;;;;0.20;0.20;;;;;;;2.15;78.90;97296.41;5042693;28;20052;-70
2024/03/21 02:32:36;;;;;;;0.20;0.20;;;;;;;2.07;78.76;97283.50;5043031;28;20485;-70
2024/03/21 02:35:03;;;;;;;0.20;0.20;;;;;;;2.04;80.25;97292.31;5042931;28;20227;-70
2024/03/21 02:37:30;;;;;;;0.20;0.20;;;;;;;1.72;79.44;97240.63;5026661;28;20060;-70
2024/03/21 02:39:56;;;;;;;0.20;0.20;;;;;;;2.09;80.48;97289.44;5043149;28;20309;-70
2024/03/21 02:42:24;;;;;;;0.30;0.30;;;;;;;2.08;78.68;97293.28;5043220;28;20053;-70
2024/03/21 02:44:50;;;;;;;0.30;0.30;;;;;;;-0.35;79.69;96924.72;5026144;28;20053;-69
2024/03/21 02:47:18;;;;;;;0.20;0.20;;;;;;;2.06;79.49;97284.59;5043227;28;20270;-68
2024/03/21 02:49:44;;;;;;;0.20;0.20;;;;;;;2.07;78.78;97288.97;5043133;28;20182;-69
2024/03/21 02:52:09;;;;;;;0.30;0.30;;;;;;;1.71;81.11;97296.38;5042594;28;20078;-69
2024/03/21 02:54:35;;;;;;;0.20;0.20;;;;;;;1.76;81.53;97261.56;5043054;28;20166;-70
2024/03/21 02:57:02;;;;;;;0.20;0.20;;;;;;;1.95;80.53;97285.94;5042723;28;20884;-70
2024/03/21 02:59:28;;;;;;;0.30;0.30;;;;;;;1.97;80.71;97294.66;5025661;28;20057;-69
2024/03/21 03:01:54;;;;;;;0.25;0.25;;;;;;;1.97;80.34;97283.72;5042481;28;20053;-69
2024/03/21 03:04:20;;;;;;;0.22;0.22;;;;;;;2.13;80.54;97288.53;5042097;28;20416;-69
2024/03/21 03:06:45;;;;;;;0.30;0.30;;;;;;;2.11;79.77;97285.28;5042144;28;20061;-70
2024/03/21 03:09:11;;;;;;;0.20;0.20;;;;;;;2.18;78.95;97284.88;5042040;28;20063;-70
2024/03/21 03:11:37;;;;;;;0.20;0.20;;;;;;;2.18;79.41;97279.41;5042439;28;20478;-70
2024/03/21 03:14:04;;;;;;;0.20;0.20;;;;;;;2.20;79.74;97299.00;5041956;28;20057;-70
2024/03/21 03:16:30;;;;;;;0.20;0.20;;;;;;;0.46;80.09;97017.16;5042107;28;20057;-69
2024/03/21 03:18:55;;;;;;;0.20;0.20;;;;;;;2.08;79.24;97264.06;5042450;28;20064;-70
2024/03/21 03:21:21;;;;;;;0.20;0.20;;;;;;;2.15;79.62;97269.09;5042055;28;20425;-70
2024/03/21 03:23:47;;;;;;;0.30;0.30;;;;;;;2.29;80.26;97267.09;5042239;28;20056;-70
2024/03/21 03:26:13;;;;;;;0.25;0.25;;;;;;;2.36;79.53;97281.13;5042092;28;20059;-69
2024/03/21 03:28:39;;;;;;;0.20;0.20;;;;;;;2.27;79.18;97277.53;5055193;28;20056;-70
2024/03/21 03:31:04;;;;;;;0.20;0.20;;;;;;;2.12;79.00;97280.66;5044974;28;20135;-70
2024/03/21 03:36:15;;;;;;;0.22;0.22;;;;;;;1.60;79.99;97237.66;5061993;28;20044;-70
2024/03/21 03:38:41;;;;;;;0.20;0.20;;;;;;;1.85;79.61;97286.22;5045693;28;20082;-69
2024/03/21 03:41:07;;;;;;;0.20;0.20;;;;;;;1.83;80.38;97282.97;5062064;28;20101;-70
2024/03/21 03:43:32;;;;;;;0.20;0.20;;;;;;;1.58;80.05;97225.09;5061831;28;20439;-70
2024/03/21 03:45:58;;;;;;;0.20;0.20;;;;;;;1.81;80.35;97275.09;5061871;28;20056;-70
2024/03/21 03:48:24;;;;;;;0.20;0.20;;;;;;;1.88;81.18;97274.66;5061811;28;20509;-70
2024/03/21 03:50:50;;;;;;;0.20;0.20;;;;;;;1.89;79.78;97282.56;5045195;28;20081;-70
2024/03/21 03:53:15;;;;;;;0.20;0.20;;;;;;;1.38;80.71;97244.69;5061454;28;20052;-69
2024/03/21 03:55:41;;;;;;;0.20;0.20;;;;;;;1.77;81.51;97274.06;5061136;28;20056;-69
2024/03/21 03:58:07;;;;;;;0.20;0.20;;;;;;;1.87;81.67;97275.75;5061029;28;20465;-70
2024/03/21 04:00:33;;;;;;;0.28;0.28;;;;;;;1.56;80.97;97290.09;5061121;28;20105;-69
2024/03/21 04:02:58;;;;;;;0.20;0.20;;;;;;;1.65;81.92;97297.56;5061186;28;20060;-69
2024/03/21 04:05:24;;;;;;;0.20;0.20;;;;;;;1.76;81.66;97293.50;5044552;28;20052;-70
2024/03/21 04:07:50;;;;;;;0.20;0.20;;;;;;;1.72;81.95;97296.06;5044208;28;20106;-70
2024/03/21 04:10:16;;;;;;;0.30;0.30;;;;;;;1.77;81.97;97268.63;5044445;28;20056;-70
2024/03/21 04:12:42;;;;;;;0.20;0.20;;;;;;;1.73;81.93;97272.28;5060982;28;20061;-70
2024/03/21 04:15:09;;;;;;;0.20;0.20;;;;;;;1.53;81.81;97238.88;5060664;28;20056;-69
2024/03/21 04:17:34;;;;;;;0.20;0.20;;;;;;;1.95;80.65;97294.97;5060934;28;20048;-70
2024/03/21 04:20:06;;;;;;;0.20;0.20;;;;;;;1.78;80.57;97270.25;5045134;28;20057;-70
2024/03/21 04:22:36;;;;;;;0.20;0.20;;;;;;;1.88;81.73;97283.66;5061347;28;20056;-70
2024/03/21 04:25:03;;;;;;;0.22;0.22;;;;;;;1.84;81.63;97306.44;5061381;28;20049;-69
2024/03/21 04:27:30;;;;;;;0.20;0.20;;;;;;;1.81;82.27;97290.66;5060814;28;20118;-69
2024/03/21 04:29:55;;;;;;;0.20;0.20;;;;;;;1.42;81.89;97234.75;5060505;28;20527;-68
2024/03/21 04:32:21;;;;;;;0.30;0.30;;;;;;;1.81;82.24;97294.22;5060500;28;20063;-69
2024/03/21 04:34:47;;;;;;;0.30;0.30;;;;;;;1.89;81.54;97298.13;5060675;28;20056;-69
2024/03/21 04:37:18;;;;;;;0.30;0.30;;;;;;;2.00;80.56;97280.38;5060830;28;20048;-69
2024/03/21 04:39:45;;;;;;;0.20;0.20;;;;;;;1.90;80.65;97277.91;5044234;28;20429;-69
2024/03/21 04:42:15;;;;;;;0.25;0.25;;;;;;;1.92;81.86;97283.84;5043153;28;20060;-69
2024/03/21 04:44:42;;;;;;;0.20;0.20;;;;;;;1.62;82.47;97224.47;5060754;28;20628;-70
2024/03/21 04:47:08;;;;;;;0.20;0.20;;;;;;;2.00;79.35;97261.25;5043755;28;20086;-70
2024/03/21 04:49:34;;;;;;;0.30;0.30;;;;;;;2.13;79.16;97284.97;5060858;28;20363;-70
2024/03/21 04:52:00;;;;;;;0.20;0.20;;;;;;;2.02;79.86;97256.28;5060505;28;20364;-70
2024/03/21 04:54:25;;;;;;;0.20;0.20;;;;;;;2.27;79.25;97293.94;5060592;28;20068;-69
2024/03/21 04:56:51;;;;;;;0.20;0.20;;;;;;;2.44;78.81;97288.56;5061330;28;20063;-70
2024/03/21 04:59:17;;;;;;;0.20;0.20;;;;;;;2.17;78.82;97267.66;5060888;28;20055;-70
2024/03/21 05:01:43;;;;;;;0.30;0.30;;;;;;;2.48;79.98;97284.88;5060718;28;20443;-69
2024/03/21 05:04:08;;;;;;;0.20;0.20;;;;;;;2.23;79.64;97216.44;5060706;28;20185;-70
2024/03/21 05:06:34;;;;;;;0.20;0.20;;;;;;;2.73;77.18;97297.09;5060673;28;20064;-69
2024/03/21 05:09:00;;;;;;;0.30;0.30;;;;;;;2.14;78.10;97218.28;5059891;28;20071;-72
2024/03/21 05:11:26;;;;;;;0.25;0.25;;;;;;;2.34;79.25;97234.97;5060850;28;20144;-71
2024/03/21 05:13:52;;;;;;;0.20;0.20;;;;;;;2.93;79.23;97296.56;5044075;28;20572;-70
2024/03/21 05:16:18;;;;;;;0.20;0.20;;;;;;;3.00;78.13;97285.97;5060636;28;20052;-69
2024/03/21 05:18:44;;;;;;;0.30;0.30;;;;;;;3.15;76.74;97280.06;5043817;28;20451;-70
2024/03/21 05:21:10;;;;;;;0.20;0.20;;;;;;;2.92;76.35;97245.72;5060514;28;20057;-70
2024/03/21 05:23:36;;;;;;;0.30;0.30;;;;;;;3.34;76.22;97286.09;5060716;28;20048;-70
2024/03/21 05:26:02;;;;;;;0.30;0.30;;;;;;;3.31;76.79;97253.06;5043847;28;20057;-72
2024/03/21 05:28:28;;;;;;;0.30;0.30;;;;;;;3.55;76.97;97287.09;5033393;28;20515;-69
2024/03/21 05:30:54;;;;;;;0.30;0.30;;;;;;;3.77;75.82;97284.25;5024588;28;20106;-68
2024/03/21 05:33:21;;;;;;;0.20;0.20;;;;;;;3.22;74.83;97179.16;5040177;28;20087;-69
2024/03/21 05:35:46;;;;;;;0.30;0.30;;;;;;;3.90;75.33;97277.81;5040077;28;20060;-69
2024/03/21 05:38:14;;;;;;;0.20;0.20;;;;;;;4.04;74.60;97283.94;5023598;28;20053;-76
2024/03/21 05:40:41;;;;;;;0.28;0.28;;;;;;;4.31;74.17;97277.31;5040431;28;20049;-72
2024/03/21 05:43:08;;;;;;;0.30;0.30;;;;;;;4.51;74.91;97279.38;5023524;28;20045;-74
2024/03/21 05:45:34;;;;;;;0.30;0.30;;;;;;;4.74;74.22;97266.25;5023735;28;20110;-74
2024/03/21 05:48:00;;;;;;;0.30;0.30;;;;;;;4.93;73.60;97278.47;5040120;28;20059;-74
2024/03/21 05:50:26;;;;;;;0.30;0.30;;;;;;;5.11;72.17;97284.66;5024025;28;20493;-75
2024/03/21 05:52:52;;;;;;;0.28;0.28;;;;;;;5.22;71.39;97280.44;5042707;28;20049;-75
2024/03/21 05:55:18;;;;;;;0.30;0.30;;;;;;;5.32;69.50;97260.84;5043842;28;20048;-74
2024/03/21 05:57:43;;;;;;;0.30;0.30;;;;;;;5.66;69.06;97277.13;5044163;28;20114;-73
2024/03/21 06:00:16;;;;;;;0.30;0.30;;;;;;;5.82;67.71;97272.69;5043765;28;20140;-75
2024/03/21 06:02:42;;;;;;;0.30;0.30;;;;;;;5.99;68.62;97262.34;5043919;28;20061;-75
2024/03/21 06:05:08;;;;;;;0.30;0.30;;;;;;;6.12;68.36;97254.97;5043663;28;20109;-75
2024/03/21 06:07:33;;;;;;;0.40;0.40;;;;;;;6.36;66.61;97266.09;5043541;28;20091;-74
2024/03/21 06:09:59;;;;;;;0.30;0.30;;;;;;;6.56;65.05;97248.72;5043516;28;20515;-72
2024/03/21 06:12:25;;;;;;;0.40;0.40;;;;;;;6.71;65.15;97250.84;5042936;28;20416;-75
2024/03/21 06:14:51;;;;;;;0.32;0.32;;;;;;;6.23;65.46;97129.66;5043484;28;20048;-76
2024/03/21 06:17:16;;;;;;;0.30;0.30;;;;;;;7.12;64.92;97244.38;5043375;28;20111;-75
2024/03/21 06:19:42;;;;;;;0.30;0.30;;;;;;;7.43;64.64;97306.06;5043773;28;20049;-75
2024/03/21 06:22:08;;;;;;;0.40;0.40;;;;;;;7.65;63.07;97239.44;5043433;28;20109;-75
2024/03/21 06:24:34;;;;;;;0.30;0.30;;;;;;;7.86;63.07;97224.69;5043646;28;20064;-72
2024/03/21 06:26:59;;;;;;;0.30;0.30;;;;;;;8.08;62.89;97229.72;5043380;28;20086;-74
2024/03/21 06:29:28;;;;;;;0.40;0.40;;;;;;;8.41;61.20;97219.25;5061066;28;20060;-74
2024/03/21 06:31:54;;;;;;;0.40;0.40;;;;;;;8.70;58.92;97227.97;5046171;28;20530;-75
2024/03/21 06:34:20;;;;;;;0.40;0.40;;;;;;;8.79;58.20;97242.41;5062927;28;20048;-77
2024/03/21 06:36:46;;;;;;;0.40;0.40;;;;;;;8.55;59.23;97230.69;5046931;28;20076;-64
2024/03/21 06:39:13;;;;;;;0.40;0.40;;;;;;;9.12;59.07;97222.72;5062023;28;20056;-66
2024/03/21 06:41:40;;;;;;;0.40;0.40;;;;;;;8.91;57.94;97166.94;5062337;28;20063;-65
2024/03/21 06:44:06;;;;;;;0.40;0.40;;;;;;;9.01;57.23;97158.09;5045285;28;20522;-71
2024/03/21 06:46:31;;;;;;;0.40;0.40;;;;;;;9.54;56.80;97190.59;5060694;28;20056;-73
2024/03/21 06:48:57;;;;;;;0.40;0.40;;;;;;;10.01;55.53;97224.47;5061513;28;20048;-63
2024/03/21 06:51:23;;;;;;;0.50;0.50;;;;;;;9.64;54.31;97156.06;5061600;28;20053;-64
2024/03/21 06:53:49;;;;;;;0.40;0.40;;;;;;;10.01;54.60;97176.63;5061574;28;20055;-72
2024/03/21 06:56:15;;;;;;;0.50;0.50;;;;;;;9.91;53.37;97172.47;5045437;28;20052;-72
2024/03/21 06:58:40;;;;;;;0.50;0.50;;;;;;;10.53;53.28;97216.50;5045010;28;20099;-70
2024/03/21 07:01:06;;;;;;;0.50;0.50;;;;;;;10.57;55.11;97217.38;5061744;28;20056;-67
2024/03/21 07:03:32;;;;;;;0.50;0.50;;;;;;;10.61;54.57;97229.34;5060147;28;20198;-63
2024/03/21 07:05:58;;;;;;;0.50;0.50;;;;;;;9.69;56.22;97098.47;5040473;28;20128;-65
2024/03/21 07:08:23;;;;;;;0.50;0.50;;;;;;;9.94;53.83;97133.00;5056783;28;20538;-64
2024/03/21 07:10:52;;;;;;;0.50;0.50;;;;;;;10.81;53.44;97209.91;5058011;28;20060;-74
2024/03/21 07:13:17;;;;;;;0.50;0.50;;;;;;;10.89;53.45;97206.88;5057778;28;20056;-64
2024/03/21 07:15:44;;;;;;;0.50;0.50;;;;;;;10.61;52.53;97171.16;5041884;28;20076;-63
2024/03/21 07:18:13;;;;;;;0.50;0.50;;;;;;;11.22;52.22;97203.53;5057873;28;20231;-74
2024/03/21 07:20:40;;;;;;;0.50;0.50;;;;;;;11.33;51.49;97176.75;5059586;28;20056;-62
2024/03/21 07:23:09;;;;;;;0.57;0.57;;;;;;;10.10;51.30;96948.31;5060973;28;20102;-70
2024/03/21 07:25:36;;;;;;;0.50;0.50;;;;;;;10.96;51.30;97051.00;5045058;28;20114;-67
2024/03/21 07:28:02;;;;;;;0.52;0.52;;;;;;;12.07;50.17;97185.06;5044571;28;20060;-68
2024/03/21 07:30:29;;;;;;;0.50;0.50;;;;;;;12.01;49.67;97163.53;5060545;28;20055;-68
2024/03/21 07:32:55;;;;;;;0.60;0.60;;;;;;;12.51;49.51;97190.75;5061368;28;20242;-73
2024/03/21 07:35:21;;;;;;;0.60;0.60;;;;;;;12.74;48.60;97180.28;5040937;28;20063;-78
2024/03/21 07:37:47;;;;;;;0.60;0.60;;;;;;;13.07;48.46;97183.03;5050924;28;20052;-63
2024/03/21 07:40:13;;;;;;;0.60;0.60;;;;;;;13.25;47.30;97214.59;5047128;28;20052;-75
2024/03/21 07:42:39;;;;;;;0.70;0.70;;;;;;;12.81;47.48;97087.81;5041190;28;20435;-68
2024/03/21 07:45:08;;;;;;;0.50;0.50;;;;;;;12.95;46.83;97118.53;5055236;28;20052;-75
2024/03/21 07:47:35;;;;;;;0.60;0.60;;;;;;;12.29;46.79;97022.25;5046234;28;20067;-74
2024/03/21 07:50:01;;;;;;;0.60;0.60;;;;;;;12.68;50.56;97170.69;5042981;28;20056;-67
2024/03/21 07:52:26;;;;;;;0.50;0.50;;;;;;;13.05;48.93;97174.28;5059686;28;20170;-78
2024/03/21 07:54:52;;;;;;;0.60;0.60;;;;;;;12.16;48.44;96998.69;5060037;28;20044;-72
2024/03/21 07:57:18;;;;;;;0.60;0.60;;;;;;;13.15;48.20;97161.66;5059780;28;20040;-68
2024/03/21 07:59:44;;;;;;;0.60;0.60;;;;;;;12.87;48.23;97114.91;5059251;28;20056;-62
2024/03/21 08:02:10;;;;;;;0.60;0.60;;;;;;;13.59;47.46;97162.41;5059234;28;20939;-76
2024/03/21 08:04:36;;;;;;;0.60;0.60;;;;;;;13.64;41.14;97157.28;5060036;28;20080;-75
2024/03/21 08:07:02;;;;;;;0.60;0.60;;;;;;;13.77;40.13;97148.63;5059302;28;20470;-62
2024/03/21 08:09:28;;;;;;;0.52;0.52;;;;;;;13.66;39.04;97132.63;5042507;28;20060;-70
2024/03/21 08:11:56;;;;;;;0.60;0.60;;;;;;;13.86;39.10;97151.84;5044278;28;20080;-73
2024/03/21 08:14:21;;;;;;;0.60;0.60;;;;;;;13.84;39.89;97118.81;5060076;28;20056;-68
2024/03/21 08:16:47;;;;;;;0.60;0.60;;;;;;;14.15;38.24;97142.44;5057184;28;20052;-61
2024/03/21 08:19:13;;;;;;;0.60;0.60;;;;;;;14.18;37.91;97136.88;5057671;28;20062;-68
2024/03/21 08:21:39;;;;;;;0.60;0.60;;;;;;;14.11;37.16;97141.63;5056262;28;20067;-66
2024/03/21 08:24:05;;;;;;;0.60;0.60;;;;;;;13.82;37.92;97084.19;5059269;28;20063;-58
2024/03/21 08:26:31;;;;;;;0.60;0.60;;;;;;;14.31;36.71;97140.16;5058552;28;20049;-62
2024/03/21 08:28:56;;;;;;;0.63;0.63;;;;;;;14.32;37.63;97141.78;5052872;28;20451;-75
2024/03/21 08:31:22;;;;;;;0.60;0.60;;;;;;;14.37;36.62;97138.59;5050417;28;20055;-71
2024/03/21 08:33:48;;;;;;;0.70;0.70;;;;;;;14.35;36.63;97135.41;5060575;28;20051;-79
2024/03/21 08:36:14;;;;;;;0.60;0.60;;;;;;;14.62;37.11;97133.91;5059644;28;20486;-71
2024/03/21 08:38:40;;;;;;;0.63;0.63;;;;;;;14.04;36.94;97002.31;5042075;28;20075;-66
2024/03/21 08:41:07;;;;;;;0.60;0.60;;;;;;;13.85;36.97;96977.63;5058224;28;20714;-77
2024/03/21 08:43:33;;;;;;;0.60;0.60;;;;;;;14.91;35.85;97135.53;5058674;28;20064;-63
2024/03/21 08:45:59;;;;;;;0.70;0.70;;;;;;;13.88;35.50;96966.47;5057812;28;20076;-73
2024/03/21 08:48:25;;;;;;;0.68;0.68;;;;;;;14.84;35.37;97100.06;5058791;28;20102;-63
2024/03/21 08:50:51;;;;;;;0.70;0.70;;;;;;;14.98;35.02;97114.03;5061212;28;20052;-79
2024/03/21 08:53:17;;;;;;;0.60;0.60;;;;;;;14.98;36.08;97118.81;5060090;28;20584;-61
2024/03/21 08:55:43;;;;;;;0.60;0.60;;;;;;;14.97;35.02;97123.59;5058914;28;20584;-60
2024/03/21 08:58:09;;;;;;;0.60;0.60;;;;;;;15.10;34.52;97098.91;5060353;28;20053;-61
2024/03/21 09:00:37;;;;;;;0.70;0.70;;;;;;;15.54;35.07;97118.06;5040949;28;20813;-79
2024/03/21 09:03:08;;;;;;;0.70;0.70;;;;;;;14.98;34.34;97004.47;5057669;28;20052;-63
2024/03/21 09:05:34;;;;;;;0.60;0.60;;;;;;;15.46;34.69;97110.88;5060503;28;20083;-66
2024/03/21 09:08:00;;;;;;;0.60;0.60;;;;;;;15.12;33.98;97055.47;5042009;28;20535;-64
2024/03/21 09:10:26;;;;;;;0.70;0.70;;;;;;;15.23;34.63;97055.44;5059763;28;20044;-63
2024/03/21 09:12:52;;;;;;;0.75;0.75;;;;;;;15.92;33.29;97101.22;5059400;28;20057;-71
2024/03/21 09:15:18;;;;;;;0.70;0.70;;;;;;;15.72;34.00;97005.13;5059556;28;20574;-62
2024/03/21 09:17:45;;;;;;;0.70;0.70;;;;;;;16.18;33.34;97053.22;5059105;28;20049;-62
2024/03/21 09:20:11;;;;;;;0.80;0.80;;;;;;;16.42;33.15;97097.00;5060157;28;20577;-62
2024/03/21 09:22:38;;;;;;;0.80;0.80;;;;;;;16.21;33.52;97049.59;5041569;28;20045;-63
2024/03/21 09:25:04;;;;;;;0.77;0.77;;;;;;;16.43;33.03;97098.63;5040916;28;20053;-71
2024/03/21 09:27:30;;;;;;;0.70;0.70;;;;;;;16.51;33.20;97089.03;5059070;28;20515;-72
2024/03/21 09:29:56;;;;;;;0.70;0.70;;;;;;;16.70;31.65;97078.50;5060566;28;20040;-73
2024/03/21 09:32:22;;;;;;;0.80;0.80;;;;;;;16.92;31.93;97085.56;5047053;28;20117;-73
2024/03/21 09:34:51;;;;;;;0.80;0.80;;;;;;;16.92;31.62;97001.59;5056487;28;20434;-75
2024/03/21 09:37:23;;;;;;;0.80;0.80;;;;;;;17.32;32.57;97090.44;5037234;28;20144;-75
2024/03/21 09:39:49;;;;;;;0.70;0.70;;;;;;;17.24;32.67;97072.13;5059670;28;20517;-74
2024/03/21 09:42:20;;;;;;;0.70;0.70;;;;;;;17.55;31.58;97079.44;5045592;28;20056;-62
2024/03/21 09:44:48;;;;;;;0.80;0.80;;;;;;;16.51;32.59;96979.16;5061754;28;20059;-61
2024/03/21 09:47:16;;;;;;;0.80;0.80;;;;;;;17.23;31.90;97064.94;5062263;28;20048;-61
2024/03/21 09:49:44;;;;;;;0.73;0.73;;;;;;;17.59;31.83;97074.63;5061725;28;20621;-63
2024/03/21 09:52:10;;;;;;;0.75;0.75;;;;;;;17.71;30.72;97060.88;5044850;28;20048;-62
2024/03/21 09:54:36;;;;;;;0.73;0.73;;;;;;;17.16;31.03;97045.38;5061367;28;20052;-74
2024/03/21 09:57:05;;;;;;;0.80;0.80;;;;;;;17.26;31.12;97078.09;5061119;28;20048;-70
2024/03/21 09:59:31;;;;;;;0.80;0.80;;;;;;;17.33;31.81;97064.03;5061257;28;20478;-63
2024/03/21 10:01:56;;;;;;;0.70;0.70;;;;;;;17.17;31.50;97027.38;5061060;28;20103;-62
2024/03/21 10:04:23;;;;;;;0.80;0.80;;;;;;;17.41;31.69;97073.94;5060828;28;20052;-63
2024/03/21 10:06:49;;;;;;;0.70;0.70;;;;;;;17.38;32.00;97060.78;5062613;28;20060;-65
2024/03/21 10:09:15;;;;;;;0.80;0.80;;;;;;;17.60;31.66;97059.41;5062881;28;20092;-64
2024/03/21 10:11:41;;;;;;;0.80;0.80;;;;;;;17.73;31.96;97058.47;5062592;28;20071;-74
2024/03/21 10:14:14;;;;;;;0.70;0.70;;;;;;;17.67;31.07;97059.34;5061771;28;20052;-62
2024/03/21 10:16:43;;;;;;;0.80;0.80;;;;;;;17.42;29.44;97058.75;5054347;28;20049;-64
2024/03/21 10:19:11;;;;;;;0.80;0.80;;;;;;;17.04;30.36;97003.91;5062980;28;20141;-73
2024/03/21 10:21:37;;;;;;;0.80;0.80;;;;;;;16.83;28.93;96948.13;5045467;28;20053;-63
2024/03/21 10:24:04;;;;;;;0.70;0.70;;;;;;;17.51;29.23;97033.88;5045198;28;20053;-63
2024/03/21 10:26:30;;;;;;;0.82;0.82;;;;;;;17.07;29.77;97020.66;5045920;28;20052;-62
2024/03/21 10:28:57;;;;;;;0.80;0.80;;;;;;;17.19;29.72;97033.34;5063287;28;20063;-72
2024/03/21 10:31:23;;;;;;;0.70;0.70;;;;;;;17.26;29.88;97022.88;5053257;28;20056;-72
2024/03/21 10:33:54;;;;;;;0.80;0.80;;;;;;;17.19;29.12;97019.34;5025719;28;20512;-62
2024/03/21 10:36:21;;;;;;;0.70;0.70;;;;;;;17.34;29.59;97016.00;5025981;28;20549;-74
2024/03/21 10:38:47;;;;;;;0.80;0.80;;;;;;;17.33;29.81;97011.63;5042601;28;20080;-61
2024/03/21 10:41:24;;;;;;;0.80;0.80;;;;;;;17.08;30.28;97016.66;5042740;28;20053;-62
2024/03/21 10:43:57;;;;;;;0.80;0.80;;;;;;;17.02;31.14;97021.13;5042354;28;20072;-71
2024/03/21 10:46:29;;;;;;;0.80;0.80;;;;;;;16.41;30.87;96966.81;5024649;28;20122;-73
2024/03/21 10:48:57;;;;;;;0.77;0.77;;;;;;;16.80;31.29;97011.31;5042488;28;20306;-73
2024/03/21 10:51:23;;;;;;;0.77;0.77;;;;;;;16.98;30.43;97008.34;5042303;28;20053;-73
2024/03/21 10:54:00;;;;;;;0.70;0.70;;;;;;;16.90;30.31;97001.25;5042362;28;20053;-73
2024/03/21 10:56:35;;;;;;;0.80;0.80;;;;;;;16.96;30.63;96980.00;5042127;28;20127;-63
2024/03/21 10:59:02;;;;;;;0.77;0.77;;;;;;;17.02;30.40;96995.94;5042861;28;20550;-74
2024/03/21 11:01:40;;;;;;;0.70;0.70;;;;;;;16.95;29.90;96998.78;5041893;28;20613;-73
2024/03/21 11:04:11;;;;;;;0.70;0.70;;;;;;;16.60;29.37;97029.81;5044190;28;20119;-74
2024/03/21 11:06:40;;;;;;;0.70;0.70;;;;;;;16.41;29.14;96994.78;5062308;28;20059;-62
2024/03/21 11:09:07;;;;;;;0.70;0.70;;;;;;;16.46;29.60;96985.19;5061904;28;20064;-72
2024/03/21 11:11:34;;;;;;;0.70;0.70;;;;;;;16.64;29.76;96975.44;5062564;28;20878;-63
2024/03/21 11:14:04;;;;;;;0.70;0.70;;;;;;;17.21;29.51;96981.38;5061952;28;20056;-74
2024/03/21 11:16:30;;;;;;;0.70;0.70;;;;;;;17.45;30.47;97035.56;5061576;28;20059;-73
2024/03/21 11:18:57;;;;;;;0.80;0.80;;;;;;;17.50;30.00;96979.06;5062183;28;20408;-70
2024/03/21 11:21:23;;;;;;;0.80;0.80;;;;;;;17.32;30.00;96989.63;5045128;28;20554;-73
2024/03/21 11:23:50;;;;;;;0.77;0.77;;;;;;;16.07;30.31;96856.06;5062609;28;20055;-74
2024/03/21 11:26:17;;;;;;;0.75;0.75;;;;;;;16.77;29.87;96977.75;5062422;28;20053;-64
2024/03/21 11:28:50;;;;;;;0.70;0.70;;;;;;;16.73;30.68;96958.19;5062237;28;20057;-62
2024/03/21 11:31:21;;;;;;;0.70;0.70;;;;;;;16.39;31.47;96857.38;5055121;28;20143;-73
2024/03/21 11:33:48;;;;;;;0.75;0.75;;;;;;;16.87;30.22;96932.09;5041283;28;20053;-72
2024/03/21 11:36:16;;;;;;;0.70;0.70;;;;;;;16.21;30.81;96873.53;5041320;28;20055;-72
2024/03/21 11:38:43;;;;;;;0.70;0.70;;;;;;;16.98;30.97;96957.97;5024843;28;20954;-62